Historyczne dane pomiarowe

Dodano dane terminowe – wersja testowa.

Dane z okresu 1951-2019

Wersja bazy: 1.34 [2019-03-16, lista zmian], aktualizacja planowana na 2019-04-15

Dane meteo z obszaru Polski uzyskane na podstawie danych udostępnionych przez Instytut Meteorologii i Gospodarki Wodnej – Państwowy Instytut Badawczy.

 

Wybierz Datę:    

       

TemperaturaWilgotnośćWiatrCiśnienieOpadyŚniegCzas trwania zjawisk
 Stacja t tx tn tng RH VA  wxwx mslp ppp RRR   cm mm wxwxwxwxwxwxwx
1987-08-14 14.5 20.1 7.3- 78.3- 4.3 2.0---- 6.8------------
1987-08-13 12.8 18.1 9.0- 91.5- 6.3 1.3---- 0.0------------
1987-08-12 11.8 13.6 8.6- 87.5- 5.3 4.7---- 4.7------------
1987-08-11 13.2 16.6 10.7- 79.8- 4.0 4.3---- 0.0------------
1987-08-10 13.7 17.0 12.0- 96.5- 8.0 3.7---- 11.0------------
1987-08-09 15.5 20.8 9.8- 81.0- 3.7 4.0---- 1.1------------
1987-08-08 14.0 20.3 6.3- 67.0- 2.0 4.3---- 0.0------------
1987-08-07 13.0 17.6 10.6- 76.0- 2.7 4.3---- 0.0------------
1987-08-06 11.6 17.2 8.3- 88.5- 5.7 2.7---- 1.2------------
1987-08-05 12.1 17.3 6.3- 78.5- 5.3 5.0---- 0.0------------
1987-08-04 11.7 17.4 6.9- 89.3- 4.7 1.3---- 2.6------------
1987-08-03 12.5 17.4 8.9- 92.5- 4.7 3.3---- 2.7------------
1987-08-02 14.3 17.5 10.9- 84.3- 2.3 4.3---- 0.0------------
1987-08-01 15.1 18.7 11.3- 92.0- 8.0 4.3---- 7.0------------
1987-07-31 15.4 17.5 11.0- 94.3- 6.3 4.0---- 23.5------------
1987-07-30 15.0 20.3 8.8- 85.0- 4.7 2.0---- 0.5------------
1987-07-29 13.6 18.3 10.3- 89.8- 2.7 2.0---- 2.5------------
1987-07-28 12.8 17.9 10.8- 89.0- 8.0 2.3---- 9.3------------
1987-07-27 10.8 14.4 6.8- 87.3- 8.0 3.0---- 5.3------------
1987-07-26 14.7 17.8 9.8- 82.3- 3.7 2.3---- 0.0------------
1987-07-25 17.1 21.2 14.3- 82.8- 3.3 2.3---- 0.6------------
1987-07-24 19.5 24.9 13.8- 82.0- 3.3 1.7---- 0.0------------
1987-07-23 20.9 25.8 15.0- 85.3- 0.0 2.0---- 0.0------------
1987-07-22 18.8 25.5 12.3- 90.5- 2.7 2.7---- 0.0------------
1987-07-21 18.1 20.9 15.3- 92.8- 4.7 2.0---- 0.0------------
1987-07-20 17.0 21.4 14.0- 85.3- 8.0 2.7---- 23.8------------
1987-07-19 18.7 24.2 11.8- 71.0- 4.7 5.7---- 14.8------------
1987-07-18 19.4 24.1 14.7- 73.8- 1.3 6.0---- 0.0------------
1987-07-17 18.2 23.9 11.8- 77.8- 3.3 8.0---- 1.6------------
1987-07-16 16.2 22.8 7.0- 78.0- 1.3 3.3---- 0.0------------
1987-07-15 15.4 21.9 5.8- 72.3- 1.0 1.0---- 0.0------------
1987-07-14 14.5 19.3 9.8- 78.0- 6.7 2.7---- 0.0------------
1987-07-13 14.4 18.6 11.6- 87.5- 5.7 3.3---- 0.7------------
1987-07-12 15.6 17.1 13.6- 96.8- 8.0 3.0---- 4.0------------
1987-07-11 12.0 14.5 8.3- 92.0- 8.0 2.7---- 6.7------------
1987-07-10 13.7 17.6 9.8- 78.3- 5.3 3.7---- 2.0------------
1987-07-09 17.7 26.5 15.2- 81.5- 5.3 3.7---- 0.1------------
1987-07-08 21.7 27.5 11.0- 65.5- 0.0 1.0---- 12.0------------
1987-07-07 20.1 26.6 8.8- 63.3- 0.0 1.7---- 0.0------------
1987-07-06 18.0 24.2 7.7- 62.8- 0.0 2.0---- 0.0------------
1987-07-05 16.2 22.5 9.2- 72.3- 2.7 4.3---- 0.0------------
1987-07-04 14.7 19.3 7.3- 77.3- 3.0 2.3---- 0.0------------
1987-07-03 16.5 22.1 9.6- 70.3- 0.0 2.7---- 0.0------------
1987-07-02 18.7 22.3 15.0- 69.5- 1.3 2.3---- 0.0------------
1987-07-01 23.7 30.1 18.7- 79.5- 2.7 2.3---- 0.0------------
1987-06-30 22.6 28.0 18.1- 81.0- 4.0 3.0---- 0.0------------
1987-06-29 15.6 21.3 5.8- 79.3- 4.7 3.0---- 0.0------------
1987-06-28 14.0 18.9 10.3- 86.0- 4.3 2.7---- 3.0------------
1987-06-27 16.4 21.7 13.6- 86.0- 6.0 1.7---- 5.8------------
1987-06-26 15.2 20.3 7.7- 76.5- 2.3 2.3---- 1.6------------
1987-06-25 11.6 16.6 10.0- 94.0- 7.3 2.0---- 12.2------------
1987-06-24 15.4 19.4 12.6- 78.0- 2.3 3.0---- 0.6------------
1987-06-23 15.5 21.9 9.4- 84.0- 3.7 2.7---- 1.2------------
1987-06-22 18.1 23.6 8.8- 71.3- 2.3 2.0---- 0.0------------
1987-06-21 16.6 23.2 8.8- 71.3- 3.7 3.0---- 0.0------------
1987-06-20 14.5 21.1 7.8- 71.8- 1.3 1.0---- 0.0------------
1987-06-19 11.5 15.5 6.8- 81.0- 5.7 5.0---- 4.8------------
1987-06-18 11.4 17.5 3.7- 76.5- 2.7 4.0---- 0.1------------
1987-06-17 12.1 13.8 11.0- 77.5- 4.3 5.0---- 0.0------------
1987-06-16 13.6 21.5 10.2- 93.3- 8.0 4.3---- 4.8------------
635.3 ms

 

Źródłem pochodzenia danych jest Instytut Meteorologii i Gospodarki Wodnej – Państwowy Instytut Badawczy. Dane Instytutu Meteorologii i Gospodarki Wodnej – Państwowego Instytutu Badawczego zostały przetworzone.

Dane źródłowe można odnaleźć na stronie https://dane.imgw.pl